РУС

ENG

 
  Pireps - S7
 

Рейс SBI2158

  • Выполнял: Danil Belov
  • Аэропорт отправления: (URML)
  • Аэропорт назначения: Domodedovo Airport (UUDD)
  • Тип ВС: A320-214 (VQ-BPL)
  • Время полёта: 05.22
  • Дата полёта: 14.02.2021
  • Маршрут: PERAT B945 UP N39 ST A928 FE
  • Статус: Одобрен

Детали полёта
Gross Revenue:
(128 load / $ 205.00 per unit
$ 26, 240.00
Fuel Cost:
(5911 fuel used @ 5.1 / unit)
$ 30, 146.10


Дополнительная информация о полёте:

Лог

Aircraft Used in flight is Aerosoft Airbus A320Neo S7 VQ-BCF
16:14 Brakes are Released
16:14 Pushing back
16:14 Engine 1 Started
16:14 Engine 2 Started
16:14 Landing Lights OFF at 30 AGL
16:16Flaps 2 Selected at 30ft and 8kts
16:16Flaps 3 Selected at 30ft and 9kts
16:20 Landing Lights ON at 30 AGL
16:20 Taxi Lights ON at 30 AGL
16:21 You Took off @ 175 Knots and Flaps at Position 3
Departure Weather
URML 141300Z VRB01MPS 9999 OVC031 05/01 Q1022 R32/01//70 NOSIG RMK QFE766/1021
16:21 Landing Gear Up @ 186 Knots and 110 Feet
16:21 Taxi Lights OFF at 130 AGL
16:21Flaps 2 Selected at 230ft and 191kts
16:21Flaps 1 Selected at 550ft and 206kts
16:21Flaps Retracted at 560ft and 207kts
16:21 Below 10000 feet you are not allowed to go over 250 knots
16:21 Landing Lights OFF at 1970 AGL
16:23 You exceeded maximum bank angle
18:27 Landing Lights ON at 3490 AGL
18:41Flaps 1 Selected at 2570ft and 225kts
18:41Flaps 2 Selected at 2520ft and 205kts
18:41Flaps 3 Selected at 2520ft and 204kts
18:41Flaps 4 Selected at 2390ft and 184kts
18:41 Landing Gear Down @ 183 Knots and 2390 Feet
18:41Flaps 5 Selected at 2360ft and 175kts
18:42 Taxi Lights ON at 2200 AGL
18:43 You Landed @ 116 Knots and with -50 Vertical Speed
Arrival Weather
UUDD 141230Z 31006MPS 2400 -SN BKN018 M13/M17 Q1008 RESN R88/490537 TEMPO 1000 SN
18:44Flaps Retracted at 600ft and 33kts
18:45 Taxiing to gate
18:45 Brakes are On
18:45 Engine 1 Stoped
18:45 Engine 2 Stoped
Pirep logged with S7 Tracking 1.0.0.14



Общая оценка полета : 100%




Route Map



 
 
   
 
Новости

03.09.2020 - Полеты в MFS 2020

Спешим сообщить вам, что теперь наш S7 Pad поддерживается для полетов в новом симуляторе MFS 2020. В разделе Загрузки вы найдете FSUIPC7.rar
Инструкция для запуска прилагается!

   
 
Авторизация






Регистрация

Восстановить пароль?

Мы в соц. сетях

      



   
 





   
 


   
 


Яндекс.Метрика

www.va-s7.ru 2011-2021
Все права защищены.



Минуточку внимания!
Сайт va-s7.ru не является коммерческим проектом. Мы не имеем отношения к торговым маркам "S7" и "Globus" и их представителям.
Эмблемы на сайте являются собственностью соответствующих компаний.

аэронавигационная метеорологическая и любая другая информация с данного ресурса ни в коем случае не должна использоваться для реальных полетов